Accueil
Images satellite Prévisions 10 joursClimatMétéo marine Cyclones Foudre AéroportsFAQ Actualités A propos
Météo : Europe Afrique Amérique du Nord Amérique du Sud Asie Australie-Océanie Autres
Langues Contact

Florennes, Belgique

Base aérienne de Florennes

latitude: 50-14N, longitude: 004-39E, altitude: 279 m


METAR: EBFS 050955Z 32007KT 9999 FEW013 SCT200 05/01 Q1038 BLU BLU TEMPO GRN
TAF: EBFS 050851Z 0510/0519 33006KT 9999 SCT025 SCT12

Heure: 11:18 (10:18 UTC)

Observation

Le bulletin a été fait il y a 23 minutes, à 09:55 UTC
Vent 7 kt de nord-ouest
Température 5°C
Humidité 75%
Pression 1038 hPa
Visibilité 10 km ou plus
Quelques nuages à une hauteur de 1300 ft
Nuages épars à une hauteur de 20000 ft

Changer d'unités

Prévision

Le bulletin a été fait il y a 1 heure et 27 minutes, à 08:51 UTC
Prévision valable du 05 à 10 UTC au 05 à 19 UTC
Vent 6 kt de nord/nord-ouest
Visibilité 10 km ou plus
Nuages épars à une hauteur de 2500 ft
Les informations qui figurent sur ce site font l'objet d'une clause de non-responsabilité
Météo : Europe Afrique Amérique du Nord Amérique du Sud Asie Australie-Océanie Autres
Images satellite Prévisions 10 joursClimatMétéo marine Cyclones Foudre AéroportsFAQ Langues Contact Actualités A propos